createdAt,value
2019-05-05T00:02:04.519Z,87.30
2019-05-05T00:04:40.617Z,87.74
2019-05-05T00:07:14.897Z,87.85
2019-05-05T00:09:46.702Z,87.86
2019-05-05T00:12:31.759Z,87.84
2019-05-05T00:15:09.830Z,87.55
2019-05-05T00:17:45.000Z,87.61
2019-05-05T00:20:16.930Z,87.83
2019-05-05T00:22:49.076Z,88.36
2019-05-05T00:25:21.689Z,89.07
2019-05-05T00:27:54.568Z,89.93
2019-05-05T00:30:26.791Z,90.61
2019-05-05T00:32:58.586Z,90.93
2019-05-05T00:35:34.479Z,91.08
2019-05-05T00:38:06.715Z,90.82
2019-05-05T00:40:38.451Z,90.68
2019-05-05T00:43:10.058Z,90.47
2019-05-05T00:45:45.119Z,90.49
2019-05-05T00:48:24.496Z,91.64
2019-05-05T00:51:01.319Z,91.85
2019-05-05T00:53:34.296Z,90.84
2019-05-05T00:56:06.249Z,90.46
2019-05-05T00:58:39.577Z,90.46
2019-05-05T01:01:30.396Z,90.91
2019-05-05T01:04:06.863Z,90.91
2019-05-05T01:06:39.019Z,90.23
2019-05-05T01:09:14.855Z,90.88
2019-05-05T01:11:48.895Z,91.24
2019-05-05T01:14:24.985Z,91.24
2019-05-05T01:16:56.910Z,92.58
2019-05-05T01:19:29.147Z,93.42
2019-05-05T01:22:00.843Z,94.18
2019-05-05T01:24:34.187Z,94.19
2019-05-05T01:27:06.573Z,94.11
2019-05-05T01:29:38.236Z,93.82
2019-05-05T01:32:15.214Z,93.70
2019-05-05T01:34:48.358Z,93.86
2019-05-05T01:37:25.469Z,94.08
2019-05-05T01:40:14.276Z,94.04
2019-05-05T01:42:45.996Z,94.27
2019-05-05T01:45:17.979Z,94.11
2019-05-05T01:47:49.760Z,93.83
2019-05-05T01:50:21.665Z,93.78
2019-05-05T01:52:55.582Z,93.68
2019-05-05T01:55:28.529Z,94.15
2019-05-05T01:58:01.002Z,94.60
2019-05-05T02:00:34.746Z,94.94
2019-05-05T02:03:08.052Z,94.87
2019-05-05T02:05:39.794Z,94.83
2019-05-05T02:08:11.793Z,94.89
2019-05-05T02:10:45.352Z,94.63
2019-05-05T02:13:19.908Z,94.11
2019-05-05T02:15:52.588Z,94.07
2019-05-05T02:18:27.133Z,94.24
2019-05-05T02:21:07.553Z,94.37
2019-05-05T02:23:39.250Z,94.29
2019-05-05T02:26:10.870Z,94.25
2019-05-05T02:29:04.752Z,93.94
2019-05-05T02:31:37.528Z,93.81
2019-05-05T02:34:11.869Z,93.49
2019-05-05T02:36:45.993Z,93.25
2019-05-05T02:39:16.816Z,91.62
2019-05-05T02:41:49.142Z,89.04
2019-05-05T02:44:21.010Z,86.69
2019-05-05T02:46:55.112Z,85.66
2019-05-05T02:49:27.595Z,85.06
2019-05-05T02:52:00.441Z,84.43
2019-05-05T02:54:33.913Z,83.65
2019-05-05T02:57:05.922Z,82.28
2019-05-05T02:59:39.359Z,81.05
2019-05-05T03:02:14.553Z,79.32
2019-05-05T03:04:47.739Z,77.51
2019-05-05T03:07:25.116Z,76.40
2019-05-05T03:09:58.505Z,74.00
2019-05-05T03:12:34.604Z,71.63
2019-05-05T03:15:07.204Z,70.21
2019-05-05T03:17:39.892Z,69.78
2019-05-05T03:20:14.537Z,68.95
2019-05-05T03:22:47.411Z,67.98
2019-05-05T03:25:19.672Z,66.96
2019-05-05T03:27:53.759Z,66.80
2019-05-05T03:30:26.264Z,66.45
2019-05-05T03:32:58.427Z,65.67
2019-05-05T03:35:30.160Z,65.75
2019-05-05T03:38:03.763Z,64.66
2019-05-05T03:40:36.885Z,63.77
2019-05-05T03:43:14.520Z,62.90
2019-05-05T03:45:50.664Z,61.95
2019-05-05T03:48:24.230Z,60.80
2019-05-05T03:50:55.883Z,59.48
2019-05-05T03:53:30.282Z,58.63
2019-05-05T03:56:03.820Z,57.48
2019-05-05T03:58:38.058Z,57.20
2019-05-05T04:01:18.553Z,55.62
2019-05-05T04:03:50.272Z,54.83
2019-05-05T04:06:25.000Z,54.24
2019-05-05T04:08:56.721Z,52.97
2019-05-05T04:11:28.417Z,53.25
2019-05-05T04:14:00.476Z,53.11
2019-05-05T04:16:34.242Z,52.80
2019-05-05T04:19:08.705Z,52.74
2019-05-05T04:21:40.596Z,52.82
2019-05-05T04:24:14.748Z,52.62
2019-05-05T04:26:49.024Z,52.89
2019-05-05T04:29:21.211Z,51.33
2019-05-05T04:31:54.048Z,50.55
2019-05-05T04:34:26.724Z,50.90
2019-05-05T04:36:58.377Z,49.85
2019-05-05T04:39:30.089Z,48.27
2019-05-05T04:42:01.738Z,47.09
2019-05-05T04:44:34.661Z,46.30
2019-05-05T04:47:14.503Z,46.88
2019-05-05T04:49:56.806Z,46.23
2019-05-05T04:52:34.314Z,43.98
2019-05-05T04:55:07.514Z,43.91
2019-05-05T04:57:39.303Z,43.02
2019-05-05T05:00:13.726Z,42.51
2019-05-05T05:02:54.044Z,42.96
2019-05-05T05:05:27.294Z,42.66
2019-05-05T05:07:58.948Z,41.22
2019-05-05T05:10:32.137Z,41.56
2019-05-05T05:13:05.486Z,40.79
2019-05-05T05:15:37.230Z,39.23
2019-05-05T05:18:10.590Z,38.21
2019-05-05T05:20:46.058Z,38.35
2019-05-05T05:23:17.900Z,38.43
2019-05-05T05:25:50.311Z,38.93
2019-05-05T05:28:23.664Z,38.37
2019-05-05T05:30:56.063Z,40.54
2019-05-05T05:33:27.734Z,39.65
2019-05-05T05:36:00.715Z,39.49
2019-05-05T05:38:34.415Z,41.11
2019-05-05T05:41:07.402Z,40.71
2019-05-05T05:43:40.635Z,41.88
2019-05-05T05:46:17.389Z,41.20
2019-05-05T05:49:07.969Z,41.46
2019-05-05T05:51:40.123Z,41.87
2019-05-05T05:54:14.529Z,42.19
2019-05-05T05:56:46.242Z,41.77
2019-05-05T05:59:20.664Z,42.67
2019-05-05T06:02:08.426Z,42.26
2019-05-05T06:04:28.121Z,43.22
2019-05-05T06:07:04.114Z,43.20
2019-05-05T06:09:35.867Z,44.07
2019-05-05T06:12:09.411Z,43.91
2019-05-05T06:14:44.682Z,45.38
2019-05-05T06:17:18.375Z,45.08
2019-05-05T06:19:53.495Z,45.27
2019-05-05T06:22:29.290Z,46.33
2019-05-05T06:24:59.037Z,45.86
2019-05-05T06:27:34.251Z,45.97
2019-05-05T06:30:07.678Z,45.21
2019-05-05T06:32:43.016Z,43.36
2019-05-05T06:35:13.945Z,42.37
2019-05-05T06:37:50.769Z,44.19
2019-05-05T06:40:41.473Z,42.62
2019-05-05T06:43:31.115Z,42.12
2019-05-05T06:46:04.895Z,42.63
2019-05-05T06:48:36.594Z,42.57
2019-05-05T06:51:08.298Z,42.32
2019-05-05T06:53:39.960Z,41.50
2019-05-05T06:56:14.554Z,38.30
2019-05-05T06:58:50.187Z,40.13
2019-05-05T07:01:21.859Z,38.03
2019-05-05T07:03:56.451Z,38.81
2019-05-05T07:06:29.279Z,39.06
2019-05-05T07:09:02.159Z,38.39
2019-05-05T07:11:34.866Z,38.57
2019-05-05T07:14:07.011Z,38.78
2019-05-05T07:16:38.627Z,38.70
2019-05-05T07:19:14.724Z,38.42
2019-05-05T07:21:46.371Z,37.85
2019-05-05T07:24:18.136Z,37.54
2019-05-05T07:26:51.359Z,38.07
2019-05-05T07:29:24.009Z,37.73
2019-05-05T07:32:00.548Z,37.89
2019-05-05T07:34:36.955Z,36.54
2019-05-05T07:37:09.106Z,36.76
2019-05-05T07:39:41.185Z,37.11
2019-05-05T07:42:14.536Z,37.61
2019-05-05T07:44:50.070Z,37.39
2019-05-05T07:47:23.792Z,37.01
2019-05-05T07:49:56.119Z,36.85
2019-05-05T07:52:27.841Z,34.73
2019-05-05T07:55:00.741Z,36.91
2019-05-05T07:57:35.370Z,36.38
2019-05-05T08:00:11.654Z,37.45
2019-05-05T08:02:43.902Z,37.94
2019-05-05T08:05:15.737Z,36.58
2019-05-05T08:07:47.385Z,36.74
2019-05-05T08:10:20.572Z,36.85
2019-05-05T08:12:54.154Z,36.14
2019-05-05T08:15:27.641Z,36.44
2019-05-05T08:18:01.362Z,37.30
2019-05-05T08:20:37.069Z,36.42
2019-05-05T08:23:25.990Z,36.09
2019-05-05T08:26:16.288Z,36.32
2019-05-05T08:28:49.437Z,36.56
2019-05-05T08:31:27.859Z,37.94
2019-05-05T08:33:59.631Z,36.67
2019-05-05T08:36:33.854Z,35.28
2019-05-05T08:39:07.455Z,35.90
2019-05-05T08:41:39.078Z,33.64
2019-05-05T08:44:11.404Z,34.21
2019-05-05T08:46:44.625Z,33.28
2019-05-05T08:49:16.804Z,33.08
2019-05-05T08:51:50.824Z,31.81
2019-05-05T08:54:23.591Z,32.28
2019-05-05T08:56:55.328Z,31.32
2019-05-05T08:59:28.366Z,29.62
2019-05-05T09:02:00.900Z,30.28
2019-05-05T09:04:34.654Z,27.25
2019-05-05T09:07:06.081Z,30.70
2019-05-05T09:09:37.716Z,30.41
2019-05-05T09:12:10.741Z,31.34
2019-05-05T09:14:44.927Z,30.44
2019-05-05T09:17:16.851Z,30.43
2019-05-05T09:19:48.246Z,30.87
2019-05-05T09:22:20.937Z,32.25
2019-05-05T09:25:10.529Z,30.34
2019-05-05T09:27:46.692Z,32.34
2019-05-05T09:30:24.599Z,31.91
2019-05-05T09:32:57.557Z,31.98
2019-05-05T09:35:29.475Z,33.08
2019-05-05T09:38:03.996Z,33.95
2019-05-05T09:40:44.000Z,34.87
2019-05-05T09:43:15.926Z,33.94
2019-05-05T09:45:47.517Z,34.21
2019-05-05T09:48:19.075Z,34.57
2019-05-05T09:50:53.922Z,35.09
2019-05-05T09:53:27.866Z,35.89
2019-05-05T09:56:00.599Z,34.61
2019-05-05T09:58:34.663Z,34.47
2019-05-05T10:01:07.924Z,36.23
2019-05-05T10:03:39.528Z,37.90
2019-05-05T10:06:11.116Z,36.19
2019-05-05T10:08:44.718Z,36.90
2019-05-05T10:11:17.000Z,36.71
2019-05-05T10:13:50.103Z,36.28
2019-05-05T10:16:23.484Z,34.78
2019-05-05T10:18:55.110Z,35.19
2019-05-05T10:21:26.692Z,34.45
2019-05-05T10:24:00.802Z,35.47
2019-05-05T10:26:34.353Z,36.25
2019-05-05T10:29:08.237Z,36.43
2019-05-05T10:31:39.822Z,36.49
2019-05-05T10:34:13.698Z,37.26
2019-05-05T10:36:47.075Z,37.64
2019-05-05T10:39:29.113Z,37.79
2019-05-05T10:42:03.933Z,36.51
2019-05-05T10:44:35.560Z,36.92
2019-05-05T10:47:07.018Z,35.86
2019-05-05T10:49:39.089Z,34.87
2019-05-05T10:52:14.244Z,35.92
2019-05-05T10:54:46.340Z,36.69
2019-05-05T10:57:18.487Z,36.21
2019-05-05T10:59:53.460Z,37.01
2019-05-05T11:02:25.162Z,36.08
2019-05-05T11:04:59.638Z,35.30
2019-05-05T11:07:31.256Z,35.13
2019-05-05T11:10:06.478Z,35.75
2019-05-05T11:12:38.097Z,34.22
2019-05-05T11:15:09.741Z,34.28
2019-05-05T11:17:43.918Z,34.19
2019-05-05T11:20:18.837Z,33.17
2019-05-05T11:22:51.209Z,34.48
2019-05-05T11:25:24.262Z,34.04
2019-05-05T11:27:57.107Z,35.13
2019-05-05T11:30:46.950Z,35.40
2019-05-05T11:33:34.646Z,34.18
2019-05-05T11:36:17.460Z,34.28
2019-05-05T11:38:49.031Z,34.77
2019-05-05T11:41:21.083Z,35.90
2019-05-05T11:43:54.604Z,35.35
2019-05-05T11:46:27.542Z,35.19
2019-05-05T11:48:59.100Z,35.36
2019-05-05T11:51:30.711Z,35.99
2019-05-05T11:54:04.694Z,36.91
2019-05-05T11:56:37.791Z,37.29
2019-05-05T11:59:11.160Z,36.57
2019-05-05T12:01:45.819Z,36.68
2019-05-05T12:04:18.347Z,36.24
2019-05-05T12:06:55.707Z,36.63
2019-05-05T12:09:28.901Z,37.77
2019-05-05T12:12:00.426Z,37.88
2019-05-05T12:14:32.646Z,36.17
2019-05-05T12:17:06.874Z,36.46
2019-05-05T12:19:43.412Z,36.64
2019-05-05T12:22:19.580Z,36.96
2019-05-05T12:24:53.492Z,37.38
2019-05-05T12:27:27.344Z,37.46
2019-05-05T12:29:59.625Z,37.95
2019-05-05T12:32:31.229Z,39.20
2019-05-05T12:35:04.220Z,39.23
2019-05-05T12:37:36.285Z,38.18
2019-05-05T12:40:09.066Z,39.89
2019-05-05T12:42:40.880Z,39.19
2019-05-05T12:45:16.395Z,40.02
2019-05-05T12:48:08.999Z,40.08
2019-05-05T12:50:40.913Z,39.83
2019-05-05T12:53:14.540Z,40.72
2019-05-05T12:55:47.449Z,38.41
2019-05-05T12:58:19.089Z,38.83
2019-05-05T13:00:58.301Z,39.27
2019-05-05T13:03:29.881Z,39.17
2019-05-05T13:06:01.535Z,38.30
2019-05-05T13:08:35.994Z,37.26
2019-05-05T13:11:08.378Z,38.49
2019-05-05T13:13:40.480Z,38.20
2019-05-05T13:16:13.736Z,38.77
2019-05-05T13:18:45.534Z,39.52
2019-05-05T13:21:36.072Z,39.78
2019-05-05T13:24:27.300Z,39.56
2019-05-05T13:27:09.609Z,40.69
2019-05-05T13:29:39.957Z,40.09
2019-05-05T13:32:11.493Z,39.20
2019-05-05T13:34:43.934Z,39.42
2019-05-05T13:37:15.615Z,38.81
2019-05-05T13:39:49.655Z,37.29
2019-05-05T13:42:21.204Z,38.04
2019-05-05T13:44:54.338Z,39.38
2019-05-05T13:47:34.252Z,39.43
2019-05-05T13:50:14.116Z,39.16
2019-05-05T13:52:47.210Z,40.71
2019-05-05T13:55:18.820Z,39.41
2019-05-05T13:57:52.012Z,40.11
2019-05-05T14:00:25.639Z,40.89
2019-05-05T14:03:00.102Z,40.86
2019-05-05T14:05:34.236Z,38.90
2019-05-05T14:08:06.912Z,38.97
2019-05-05T14:10:40.711Z,38.18
2019-05-05T14:13:15.240Z,38.58
2019-05-05T14:15:46.843Z,36.88
2019-05-05T14:18:18.863Z,38.02
2019-05-05T14:20:51.602Z,37.39
2019-05-05T14:23:24.562Z,36.91
2019-05-05T14:25:56.075Z,36.79
2019-05-05T14:28:27.676Z,37.29
2019-05-05T14:31:00.904Z,37.31
2019-05-05T14:33:34.198Z,37.53
2019-05-05T14:36:19.563Z,37.66
2019-05-05T14:38:54.060Z,38.00
2019-05-05T14:41:28.166Z,38.28
2019-05-05T14:44:00.887Z,37.71
2019-05-05T14:46:34.033Z,38.36
2019-05-05T14:49:07.219Z,37.25
2019-05-05T14:51:38.863Z,37.99
2019-05-05T14:54:14.617Z,38.03
2019-05-05T14:56:46.067Z,37.50
2019-05-05T14:59:19.286Z,38.02
2019-05-05T15:01:50.863Z,38.00
2019-05-05T15:04:24.004Z,38.34
2019-05-05T15:07:03.777Z,38.47
2019-05-05T15:09:38.228Z,38.14
2019-05-05T15:12:23.785Z,37.75
2019-05-05T15:14:55.526Z,38.18
2019-05-05T15:17:27.040Z,38.81
2019-05-05T15:19:58.684Z,39.52
2019-05-05T15:22:31.571Z,39.00
2019-05-05T15:25:05.773Z,39.13
2019-05-05T15:27:38.589Z,39.33
2019-05-05T15:30:12.508Z,39.88
2019-05-05T15:32:45.629Z,40.01
2019-05-05T15:35:17.739Z,39.44
2019-05-05T15:37:49.299Z,40.37
2019-05-05T15:40:21.217Z,41.04
2019-05-05T15:42:54.479Z,39.95
2019-05-05T15:45:27.211Z,40.49
2019-05-05T15:47:58.736Z,40.77
2019-05-05T15:50:31.230Z,40.98
2019-05-05T15:53:03.843Z,40.85
2019-05-05T15:55:38.360Z,40.57
2019-05-05T15:58:11.039Z,41.05
2019-05-05T16:00:44.322Z,41.83
2019-05-05T16:03:16.011Z,42.10
2019-05-05T16:05:47.626Z,42.01
2019-05-05T16:08:20.551Z,42.17
2019-05-05T16:10:54.438Z,42.80
2019-05-05T16:13:25.364Z,43.01
2019-05-05T16:16:14.748Z,43.21
2019-05-05T16:19:04.939Z,43.57
2019-05-05T16:21:28.577Z,43.89
2019-05-05T16:24:08.339Z,43.65
2019-05-05T16:26:41.375Z,43.35
2019-05-05T16:29:15.667Z,44.15
2019-05-05T16:31:48.683Z,44.24
2019-05-05T16:34:23.559Z,44.74
2019-05-05T16:36:57.024Z,44.90
2019-05-05T16:39:33.562Z,45.33
2019-05-05T16:42:05.586Z,45.84
2019-05-05T16:44:37.252Z,46.27
2019-05-05T16:47:08.792Z,46.72
2019-05-05T16:49:40.416Z,46.99
2019-05-05T16:52:14.638Z,47.25
2019-05-05T16:55:00.716Z,47.89
2019-05-05T16:57:36.486Z,47.89
2019-05-05T17:00:08.996Z,48.39
2019-05-05T17:02:44.486Z,48.75
2019-05-05T17:05:16.792Z,49.19
2019-05-05T17:07:49.199Z,49.51
2019-05-05T17:10:24.293Z,49.87
2019-05-05T17:12:59.210Z,50.24
2019-05-05T17:15:36.366Z,50.86
2019-05-05T17:18:09.481Z,51.45
2019-05-05T17:20:54.759Z,51.95
2019-05-05T17:23:28.942Z,52.36
2019-05-05T17:26:03.494Z,52.87
2019-05-05T17:28:35.498Z,53.56
2019-05-05T17:31:08.442Z,54.24
2019-05-05T17:33:44.725Z,54.80
2019-05-05T17:36:18.489Z,55.41
2019-05-05T17:38:57.981Z,56.13
2019-05-05T17:41:49.699Z,56.58
2019-05-05T17:44:25.190Z,56.70
2019-05-05T17:46:59.952Z,56.65
2019-05-05T17:49:33.974Z,56.75
2019-05-05T17:52:14.333Z,56.83
2019-05-05T17:54:47.416Z,56.98
2019-05-05T17:57:19.412Z,57.19
2019-05-05T17:59:53.694Z,57.52
2019-05-05T18:02:26.360Z,57.76
2019-05-05T18:05:10.890Z,58.12
2019-05-05T18:07:44.234Z,58.48
2019-05-05T18:10:17.807Z,58.73
2019-05-05T18:12:56.801Z,58.92
2019-05-05T18:15:48.280Z,59.23
2019-05-05T18:18:23.350Z,59.37
2019-05-05T18:20:55.670Z,59.44
2019-05-05T18:23:28.870Z,59.25
2019-05-05T18:26:04.160Z,59.05
2019-05-05T18:28:36.056Z,59.05
2019-05-05T18:31:10.819Z,59.14
2019-05-05T18:33:42.521Z,59.16
2019-05-05T18:36:15.064Z,59.20
2019-05-05T18:38:48.135Z,59.29
2019-05-05T18:41:23.658Z,59.55
2019-05-05T18:43:59.108Z,59.66
2019-05-05T18:46:30.607Z,59.79
2019-05-05T18:49:04.426Z,60.10
2019-05-05T18:51:36.267Z,60.38
2019-05-05T18:54:08.014Z,60.70
2019-05-05T18:56:41.640Z,60.90
2019-05-05T18:59:14.617Z,60.97
2019-05-05T19:01:48.815Z,61.05
2019-05-05T19:04:26.460Z,61.11
2019-05-05T19:07:04.989Z,61.25
2019-05-05T19:09:50.994Z,61.50
2019-05-05T19:12:15.063Z,62.07
2019-05-05T19:14:46.708Z,62.36
2019-05-05T19:17:18.727Z,62.63
2019-05-05T19:19:54.891Z,62.98
2019-05-05T19:22:26.950Z,63.27
2019-05-05T19:24:59.997Z,63.73
2019-05-05T19:27:33.584Z,64.39
2019-05-05T19:30:06.546Z,64.67
2019-05-05T19:32:43.604Z,64.80
2019-05-05T19:35:15.521Z,65.18
2019-05-05T19:37:48.165Z,65.53
2019-05-05T19:40:20.403Z,65.80
2019-05-05T19:42:54.092Z,65.84
2019-05-05T19:45:26.746Z,66.14
2019-05-05T19:48:00.192Z,66.46
2019-05-05T19:50:54.060Z,66.67
2019-05-05T19:53:27.870Z,66.94
2019-05-05T19:56:04.076Z,67.29
2019-05-05T19:58:36.607Z,67.42
2019-05-05T20:01:09.498Z,67.44
2019-05-05T20:03:44.111Z,67.78
2019-05-05T20:06:17.640Z,67.99
2019-05-05T20:08:50.368Z,68.07
2019-05-05T20:11:24.737Z,67.74
2019-05-05T20:14:07.013Z,67.00
2019-05-05T20:16:37.614Z,66.86
2019-05-05T20:19:13.532Z,67.34
2019-05-05T20:21:46.187Z,67.54
2019-05-05T20:24:17.750Z,67.84
2019-05-05T20:26:49.970Z,67.78
2019-05-05T20:29:23.866Z,67.76
2019-05-05T20:31:56.699Z,68.03
2019-05-05T20:34:31.327Z,68.76
2019-05-05T20:37:14.290Z,69.73
2019-05-05T20:39:46.028Z,69.98
2019-05-05T20:42:17.634Z,70.56
2019-05-05T20:44:54.266Z,70.63
2019-05-05T20:47:25.582Z,70.76
2019-05-05T20:49:58.640Z,69.84
2019-05-05T20:52:31.660Z,70.35
2019-05-05T20:55:06.161Z,70.71
2019-05-05T20:57:37.948Z,70.62
2019-05-05T21:00:11.263Z,69.13
2019-05-05T21:02:45.899Z,70.29
2019-05-05T21:05:17.525Z,70.44
2019-05-05T21:07:49.146Z,70.06
2019-05-05T21:10:23.971Z,70.08
2019-05-05T21:12:56.793Z,70.59
2019-05-05T21:15:29.748Z,71.46
2019-05-05T21:18:02.028Z,72.07
2019-05-05T21:20:36.010Z,72.83
2019-05-05T21:23:26.092Z,73.73
2019-05-05T21:26:08.403Z,74.46
2019-05-05T21:28:40.001Z,74.73
2019-05-05T21:31:14.484Z,74.93
2019-05-05T21:33:45.985Z,75.11
2019-05-05T21:36:17.658Z,75.08
2019-05-05T21:38:50.063Z,74.88
2019-05-05T21:41:24.484Z,75.13
2019-05-05T21:43:56.466Z,75.67
2019-05-05T21:46:28.236Z,76.04
2019-05-05T21:49:03.871Z,76.22
2019-05-05T21:51:43.948Z,76.06
2019-05-05T21:54:34.286Z,76.30
2019-05-05T21:57:14.045Z,76.47
2019-05-05T21:59:55.565Z,76.50
2019-05-05T22:02:23.586Z,76.88
2019-05-05T22:04:55.410Z,77.40
2019-05-05T22:07:26.999Z,77.96
2019-05-05T22:09:58.746Z,78.30
2019-05-05T22:12:33.397Z,78.58
2019-05-05T22:15:06.890Z,78.63
2019-05-05T22:17:39.756Z,78.44
2019-05-05T22:20:19.146Z,78.66
2019-05-05T22:22:50.966Z,78.82
2019-05-05T22:25:22.624Z,78.61
2019-05-05T22:27:54.554Z,78.00
2019-05-05T22:30:26.163Z,77.85
2019-05-05T22:32:59.115Z,77.89
2019-05-05T22:35:30.630Z,78.35
2019-05-05T22:38:05.849Z,78.63
2019-05-05T22:40:35.539Z,78.39
2019-05-05T22:43:07.135Z,78.34
2019-05-05T22:45:38.745Z,78.27
2019-05-05T22:48:10.344Z,78.02
2019-05-05T22:50:43.673Z,77.40
2019-05-05T22:53:16.369Z,77.16
2019-05-05T22:55:48.901Z,77.09
2019-05-05T22:58:20.540Z,77.08
2019-05-05T23:00:54.693Z,77.34
2019-05-05T23:03:28.567Z,77.82
2019-05-05T23:06:01.717Z,77.96
2019-05-05T23:08:35.087Z,77.48
2019-05-05T23:11:06.853Z,77.86
2019-05-05T23:13:39.496Z,77.60
2019-05-05T23:16:21.378Z,77.57
2019-05-05T23:18:54.732Z,77.23
2019-05-05T23:21:27.706Z,77.55
2019-05-05T23:24:03.936Z,77.74
2019-05-05T23:26:40.562Z,77.53
2019-05-05T23:29:12.154Z,77.57
2019-05-05T23:31:44.423Z,77.29
2019-05-05T23:34:16.574Z,77.62
2019-05-05T23:36:48.253Z,77.62
2019-05-05T23:39:19.821Z,77.82
2019-05-05T23:41:51.346Z,77.57
2019-05-05T23:44:23.818Z,77.67
2019-05-05T23:46:55.500Z,77.92
2019-05-05T23:49:27.018Z,77.69
2019-05-05T23:51:58.555Z,77.77
2019-05-05T23:54:30.184Z,77.44
2019-05-05T23:57:04.703Z,77.18
2019-05-05T23:59:36.071Z,77.48
